LDDU/DBV METAR and TAF weather

Enter ICAO airport designator
Station Type Date Time Source
LDDU METAR 2021/07/30 07:30 UTC NOAA

LDDU 300730Z 17006KT 120V200 CAVOK 30/15 Q1013 NOSIG


Station Type Date Time Source
LDDU Decoded METAR 2021/07/30 07:30 UTC NOAA

Dubrovnik / Cilipi, Croatia (LDDU) 42-34N 018-16E 165M
Jul 30, 2021 - 03:30 AM EDT / 2021.07.30 0730 UTC
Wind: from the S (170 degrees) at 7 MPH (6 KT) (direction variable):0
Visibility: greater than 7 mile(s):0
Temperature: 86 F (30 C)
Dew Point: 59 F (15 C)
Relative Humidity: 40%
Pressure (altimeter): 29.91 in. Hg (1013 hPa)
ob: LDDU 300730Z 17006KT 120V200 CAVOK 30/15 Q1013 NOSIG
cycle: 7

Station Type Date Time Source
LDDU TAF 2021/07/30 06:27 UTC NOAA

TAF TAF LDDU 300525Z 3006/3106 19006KT CAVOK TX31/3012Z TN22/3103Z PROB30
TEMPO 3007/3009 14007KT PROB30
TEMPO 3013/3017 27007KT

Example: see airport list